Time;durP1;ratioP1;P1;durP2;ratioP2;P2;SDS_P1;SDS_P2;PMS_P1;PMS_P2;Temp;Humidity;BMP_temperature;BMP_pressure;BME280_temperature;BME280_humidity;BME280_pressure;Samples;Min_cycle;Max_cycle;Signal;HPM_P1;HPM_P2
2020/12/25 00:01:20;0.00;0.00;0.62;0.00;0.00;0.62;;;;;10.80;1.00;;;;;;2280773;61;1122;-85
2020/12/25 00:03:47;0.00;0.00;0.62;0.00;0.00;0.62;;;;;10.70;1.00;;;;;;2280816;61;1203;-85
2020/12/25 00:06:14;0.00;0.00;0.62;0.00;0.00;0.62;;;;;10.60;1.00;;;;;;2280794;61;1069;-85
2020/12/25 00:08:41;11504.00;0.04;20.55;0.00;0.00;0.62;;;;;10.50;1.00;;;;;;2280792;61;1384;-85
2020/12/25 00:11:07;0.00;0.00;0.62;0.00;0.00;0.62;;;;;10.50;1.00;;;;;;2280717;61;1988;-85
2020/12/25 00:13:34;0.00;0.00;0.62;0.00;0.00;0.62;;;;;10.80;1.00;;;;;;2280776;61;1143;-85
2020/12/25 00:16:01;0.00;0.00;0.62;0.00;0.00;0.62;;;;;10.40;1.00;;;;;;2280681;61;1106;-87
2020/12/25 00:18:27;0.00;0.00;0.62;0.00;0.00;0.62;;;;;9.90;1.00;;;;;;2280755;61;1435;-86
2020/12/25 00:20:54;0.00;0.00;0.62;0.00;0.00;0.62;;;;;10.10;1.00;;;;;;2280709;61;1735;-86
2020/12/25 00:23:21;0.00;0.00;0.62;0.00;0.00;0.62;;;;;9.70;1.00;;;;;;2280657;61;1665;-86
2020/12/25 00:25:48;0.00;0.00;0.62;0.00;0.00;0.62;;;;;9.80;1.00;;;;;;2280765;61;1051;-86
2020/12/25 00:28:15;0.00;0.00;0.62;0.00;0.00;0.62;;;;;9.90;1.00;;;;;;2280576;61;1332;-87
2020/12/25 00:30:43;0.00;0.00;0.62;0.00;0.00;0.62;;;;;9.70;1.00;;;;;;2280763;61;1100;-85
2020/12/25 00:33:09;0.00;0.00;0.62;0.00;0.00;0.62;;;;;9.90;1.00;;;;;;2281343;61;2032;-86
2020/12/25 00:35:35;0.00;0.00;0.62;0.00;0.00;0.62;;;;;10.10;1.00;;;;;;2281424;61;1127;-88
2020/12/25 00:38:02;0.00;0.00;0.62;0.00;0.00;0.62;;;;;9.40;1.00;;;;;;2281357;61;1451;-88
2020/12/25 00:40:29;28340.00;0.09;49.71;0.00;0.00;0.62;;;;;9.00;1.00;;;;;;2281425;61;1051;-87
2020/12/25 00:42:57;0.00;0.00;0.62;0.00;0.00;0.62;;;;;8.80;1.00;;;;;;2281371;61;1141;-87
2020/12/25 00:45:23;4863.00;0.02;9.05;0.00;0.00;0.62;;;;;8.60;1.00;;;;;;2281427;61;1096;-86
2020/12/25 00:47:50;0.00;0.00;0.62;0.00;0.00;0.62;;;;;8.30;1.00;;;;;;2281373;61;1373;-88
2020/12/25 00:50:16;0.00;0.00;0.62;0.00;0.00;0.62;;;;;8.70;1.00;;;;;;2281403;61;1066;-86
2020/12/25 00:52:43;33872.00;0.11;59.28;0.00;0.00;0.62;;;;;9.00;1.00;;;;;;2281388;61;1917;-86
2020/12/25 00:55:09;4434.00;0.01;8.30;0.00;0.00;0.62;;;;;9.10;1.00;;;;;;2281202;61;1010;-86
2020/12/25 00:57:37;0.00;0.00;0.62;0.00;0.00;0.62;;;;;9.00;1.00;;;;;;2281123;61;1268;-86
2020/12/25 01:00:04;0.00;0.00;0.62;0.00;0.00;0.62;;;;;9.40;1.00;;;;;;2281290;61;1199;-86
2020/12/25 01:02:31;0.00;0.00;0.62;0.00;0.00;0.62;;;;;9.60;1.00;;;;;;2281212;61;1120;-86
2020/12/25 01:04:57;0.00;0.00;0.62;0.00;0.00;0.62;;;;;9.40;1.00;;;;;;2281289;61;1118;-86
2020/12/25 01:07:24;12395.00;0.04;22.10;0.00;0.00;0.62;;;;;9.60;1.00;;;;;;2281297;61;1461;-87
2020/12/25 01:09:50;17113.00;0.06;30.27;0.00;0.00;0.62;;;;;9.70;1.00;;;;;;2281285;61;1778;-87
2020/12/25 01:12:17;0.00;0.00;0.62;0.00;0.00;0.62;;;;;9.80;1.00;;;;;;2281333;61;1915;-86
2020/12/25 01:14:44;0.00;0.00;0.62;0.00;0.00;0.62;;;;;9.80;1.00;;;;;;2281341;61;1104;-87
2020/12/25 01:17:11;0.00;0.00;0.62;0.00;0.00;0.62;;;;;9.80;1.00;;;;;;2281273;61;1344;-86
2020/12/25 01:19:37;0.00;0.00;0.62;0.00;0.00;0.62;;;;;10.20;1.00;;;;;;2281287;61;1140;-86
2020/12/25 01:22:04;0.00;0.00;0.62;0.00;0.00;0.62;;;;;10.40;1.00;;;;;;2281250;61;1126;-86
2020/12/25 01:24:30;0.00;0.00;0.62;0.00;0.00;0.62;;;;;10.50;1.00;;;;;;2281353;61;1134;-85
2020/12/25 01:26:57;0.00;0.00;0.62;0.00;0.00;0.62;;;;;10.30;1.00;;;;;;2281258;61;1770;-86
2020/12/25 01:29:23;7115.00;0.02;12.95;0.00;0.00;0.62;;;;;10.30;1.00;;;;;;2281292;61;1113;-84
2020/12/25 01:31:51;12444.00;0.04;22.18;0.00;0.00;0.62;;;;;10.40;1.00;;;;;;2281277;61;1992;-85
2020/12/25 01:34:17;0.00;0.00;0.62;0.00;0.00;0.62;;;;;10.60;1.00;;;;;;2281303;61;1125;-86
2020/12/25 01:36:43;0.00;0.00;0.62;0.00;0.00;0.62;;;;;10.80;1.00;;;;;;2281232;61;1448;-86
2020/12/25 01:39:10;0.00;0.00;0.62;0.00;0.00;0.62;;;;;10.80;1.00;;;;;;2281245;61;1063;-86
2020/12/25 01:41:36;0.00;0.00;0.62;0.00;0.00;0.62;;;;;10.60;1.00;;;;;;2281242;61;1053;-86
2020/12/25 01:44:03;0.00;0.00;0.62;0.00;0.00;0.62;;;;;10.40;1.00;;;;;;2280997;61;1708;-86
2020/12/25 01:46:29;0.00;0.00;0.62;0.00;0.00;0.62;;;;;10.20;1.00;;;;;;2281276;61;1110;-86
2020/12/25 01:48:58;49538.00;0.17;86.39;0.00;0.00;0.62;;;;;10.70;1.00;;;;;;2281180;61;1427;-84
2020/12/25 01:51:24;0.00;0.00;0.62;0.00;0.00;0.62;;;;;11.10;1.00;;;;;;2281213;61;2008;-85
2020/12/25 01:53:51;11594.00;0.04;20.71;0.00;0.00;0.62;;;;;11.30;1.00;;;;;;2281137;61;1140;-85
2020/12/25 01:56:18;0.00;0.00;0.62;0.00;0.00;0.62;;;;;10.90;1.00;;;;;;2281127;61;1175;-85
2020/12/25 01:58:46;24039.00;0.08;42.26;0.00;0.00;0.62;;;;;11.20;1.00;;;;;;2281118;61;1429;-85
2020/12/25 02:01:13;0.00;0.00;0.62;0.00;0.00;0.62;;;;;11.60;1.00;;;;;;2281036;61;932;-85
2020/12/25 02:03:39;0.00;0.00;0.62;0.00;0.00;0.62;;;;;11.20;1.00;;;;;;2280982;61;1118;-85
2020/12/25 02:06:06;0.00;0.00;0.62;0.00;0.00;0.62;;;;;11.30;1.00;;;;;;2280889;61;1161;-85
2020/12/25 02:08:33;0.00;0.00;0.62;0.00;0.00;0.62;;;;;11.80;1.00;;;;;;2280883;61;1473;-86
2020/12/25 02:11:01;0.00;0.00;0.62;0.00;0.00;0.62;;;;;11.80;1.00;;;;;;2280867;61;1919;-86
2020/12/25 02:13:29;0.00;0.00;0.62;0.00;0.00;0.62;;;;;11.80;1.00;;;;;;2280905;61;1091;-86
2020/12/25 02:15:55;0.00;0.00;0.62;0.00;0.00;0.62;;;;;11.40;1.00;;;;;;2281039;61;1096;-86
2020/12/25 02:18:22;0.00;0.00;0.62;0.00;0.00;0.62;;;;;11.50;1.00;;;;;;2280905;61;1290;-85
2020/12/25 02:20:48;0.00;0.00;0.62;0.00;0.00;0.62;;;;;11.90;1.00;;;;;;2280847;61;1247;-86
2020/12/25 02:23:16;0.00;0.00;0.62;0.00;0.00;0.62;;;;;11.70;1.00;;;;;;2280869;61;1113;-86
2020/12/25 02:25:42;0.00;0.00;0.62;0.00;0.00;0.62;;;;;11.50;1.00;;;;;;2280901;61;1099;-86
2020/12/25 02:28:09;0.00;0.00;0.62;0.00;0.00;0.62;;;;;11.20;1.00;;;;;;2280723;61;1406;-85
2020/12/25 02:30:35;0.00;0.00;0.62;0.00;0.00;0.62;;;;;11.00;1.00;;;;;;2280882;61;1080;-86
2020/12/25 02:33:02;24980.00;0.08;43.89;0.00;0.00;0.62;;;;;10.90;1.00;;;;;;2280921;61;2009;-86
2020/12/25 02:35:28;0.00;0.00;0.62;0.00;0.00;0.62;;;;;11.20;1.00;;;;;;2280877;61;1123;-86
2020/12/25 02:37:55;49786.00;0.17;86.82;0.00;0.00;0.62;;;;;11.00;1.00;;;;;;2280888;61;1754;-86
2020/12/25 02:40:22;0.00;0.00;0.62;0.00;0.00;0.62;;;;;10.70;1.00;;;;;;2280928;61;1105;-85
2020/12/25 02:42:49;0.00;0.00;0.62;0.00;0.00;0.62;;;;;10.70;1.00;;;;;;2280941;61;1192;-85
2020/12/25 02:45:15;0.00;0.00;0.62;0.00;0.00;0.62;;;;;10.70;1.00;;;;;;2280746;61;1687;-85
2020/12/25 02:47:42;0.00;0.00;0.62;0.00;0.00;0.62;;;;;10.80;1.00;;;;;;2280967;61;1300;-86
2020/12/25 02:50:08;0.00;0.00;0.62;0.00;0.00;0.62;;;;;10.80;1.00;;;;;;2280904;61;1327;-85
2020/12/25 02:52:35;0.00;0.00;0.62;0.00;0.00;0.62;;;;;10.80;1.00;;;;;;2280846;61;2000;-85
2020/12/25 02:55:01;19839.00;0.07;34.99;0.00;0.00;0.62;;;;;11.10;1.00;;;;;;2280668;61;1086;-85
2020/12/25 02:57:29;0.00;0.00;0.62;0.00;0.00;0.62;;;;;11.20;1.00;;;;;;2280705;61;1437;-85
2020/12/25 02:59:55;0.00;0.00;0.62;0.00;0.00;0.62;;;;;11.50;1.00;;;;;;2280730;61;979;-84
2020/12/25 03:02:22;24941.00;0.08;43.83;0.00;0.00;0.62;;;;;11.10;1.00;;;;;;2280897;61;1104;-85
2020/12/25 03:04:48;0.00;0.00;0.62;0.00;0.00;0.62;;;;;10.90;1.00;;;;;;2281017;61;1094;-85
2020/12/25 03:07:14;0.00;0.00;0.62;0.00;0.00;0.62;;;;;10.70;1.00;;;;;;2280849;61;1406;-85
2020/12/25 03:09:41;0.00;0.00;0.62;0.00;0.00;0.62;;;;;10.70;1.00;;;;;;2280928;61;1015;-85
2020/12/25 03:12:07;0.00;0.00;0.62;0.00;0.00;0.62;;;;;10.70;1.00;;;;;;2280902;61;1913;-85
2020/12/25 03:14:35;20493.00;0.07;36.12;0.00;0.00;0.62;;;;;11.10;1.00;;;;;;2280967;61;1089;-85
2020/12/25 03:17:01;0.00;0.00;0.62;0.00;0.00;0.62;;;;;11.20;1.00;;;;;;2280880;61;1396;-87
2020/12/25 03:19:28;41497.00;0.14;72.48;0.00;0.00;0.62;;;;;11.00;1.00;;;;;;2280967;61;994;-86
2020/12/25 03:21:55;0.00;0.00;0.62;0.00;0.00;0.62;;;;;11.30;1.00;;;;;;2280766;61;1006;-84
2020/12/25 03:24:21;0.00;0.00;0.62;0.00;0.00;0.62;;;;;11.20;1.00;;;;;;2280694;61;1017;-86
2020/12/25 03:26:48;0.00;0.00;0.62;0.00;0.00;0.62;;;;;11.40;1.00;;;;;;2280786;61;1455;-86
2020/12/25 03:29:14;52587.00;0.18;91.66;0.00;0.00;0.62;;;;;11.60;1.00;;;;;;2280608;61;1041;-85
2020/12/25 03:31:42;43541.00;0.15;76.01;0.00;0.00;0.62;;;;;11.70;1.00;;;;;;2280786;61;1996;-86
2020/12/25 03:34:09;0.00;0.00;0.62;0.00;0.00;0.62;;;;;11.60;1.00;;;;;;2280835;61;1160;-86
2020/12/25 03:36:35;0.00;0.00;0.62;0.00;0.00;0.62;;;;;11.40;1.00;;;;;;2280833;61;1066;-86
2020/12/25 03:39:02;25537.00;0.09;44.86;0.00;0.00;0.62;;;;;10.90;1.00;;;;;;2273628;61;1399;-86
2020/12/25 03:41:28;0.00;0.00;0.62;0.00;0.00;0.62;;;;;10.80;1.00;;;;;;2280820;61;1180;-86
2020/12/25 03:43:55;0.00;0.00;0.62;0.00;0.00;0.62;;;;;11.00;1.00;;;;;;2280678;61;1175;-86
2020/12/25 03:46:21;91828.00;0.31;159.46;0.00;0.00;0.62;;;;;11.20;1.00;;;;;;2280573;61;1153;-86
2020/12/25 03:48:49;22179.00;0.07;39.04;0.00;0.00;0.62;;;;;11.20;1.00;;;;;;2280667;61;1477;-85
2020/12/25 03:51:15;32181.00;0.11;56.36;0.00;0.00;0.62;;;;;11.60;1.00;;;;;;2280628;61;1998;-86
2020/12/25 03:53:42;20955.00;0.07;36.92;0.00;0.00;0.62;;;;;11.60;1.00;;;;;;2280755;61;1107;-86
2020/12/25 03:56:08;26643.00;0.09;46.77;0.00;0.00;0.62;;;;;11.40;1.00;;;;;;2280720;61;1623;-86
2020/12/25 03:58:35;0.00;0.00;0.62;0.00;0.00;0.62;;;;;10.70;1.00;;;;;;2280787;61;1482;-86
2020/12/25 04:01:02;7295.00;0.02;13.26;0.00;0.00;0.62;;;;;10.80;1.00;;;;;;2280857;61;1067;-85
2020/12/25 04:03:28;0.00;0.00;0.62;0.00;0.00;0.62;;;;;11.00;1.00;;;;;;2280811;61;1197;-86
2020/12/25 04:05:57;122587.00;0.41;212.54;0.00;0.00;0.62;;;;;10.90;1.00;;;;;;2273520;61;962;-86
2020/12/25 04:08:23;0.00;0.00;0.62;0.00;0.00;0.62;;;;;10.60;1.00;;;;;;2280771;61;1470;-86
2020/12/25 04:10:50;0.00;0.00;0.62;0.00;0.00;0.62;;;;;10.80;1.00;;;;;;2280788;61;1187;-86
2020/12/25 04:13:16;0.00;0.00;0.62;0.00;0.00;0.62;;;;;10.70;1.00;;;;;;2280520;61;2016;-86
2020/12/25 04:15:43;0.00;0.00;0.62;0.00;0.00;0.62;;;;;10.80;1.00;;;;;;2280703;61;1095;-85
2020/12/25 04:18:09;0.00;0.00;0.62;0.00;0.00;0.62;;;;;11.10;1.00;;;;;;2280701;61;1417;-86
2020/12/25 04:20:36;7835.00;0.03;14.20;0.00;0.00;0.62;;;;;11.20;1.00;;;;;;2280684;61;1633;-87
2020/12/25 04:23:03;25306.00;0.08;44.46;0.00;0.00;0.62;;;;;11.50;1.00;;;;;;2280702;61;1841;-87
2020/12/25 04:25:30;2873.00;0.01;5.60;0.00;0.00;0.62;;;;;11.40;1.00;;;;;;2280800;61;1083;-86
2020/12/25 04:27:56;0.00;0.00;0.62;0.00;0.00;0.62;;;;;11.60;1.00;;;;;;2280752;61;1408;-87
2020/12/25 04:30:22;0.00;0.00;0.62;0.00;0.00;0.62;;;;;11.50;1.00;;;;;;2280751;61;1231;-86
2020/12/25 04:32:49;0.00;0.00;0.62;0.00;0.00;0.62;;;;;11.60;1.00;;;;;;2280720;61;1994;-86
2020/12/25 04:35:16;0.00;0.00;0.62;0.00;0.00;0.62;;;;;11.70;1.00;;;;;;2280645;61;1579;-86
2020/12/25 04:37:42;0.00;0.00;0.62;0.00;0.00;0.62;;;;;11.70;1.00;;;;;;2280747;61;1415;-86
2020/12/25 04:40:10;54407.00;0.18;94.81;0.00;0.00;0.62;;;;;11.90;1.00;;;;;;2280555;61;967;-86
2020/12/25 04:42:40;0.00;0.00;0.62;0.00;0.00;0.62;;;;;11.50;1.00;;;;;;2280719;61;959;-85
2020/12/25 04:45:06;0.00;0.00;0.62;0.00;0.00;0.62;;;;;11.40;1.00;;;;;;2280648;61;1738;-86
2020/12/25 04:47:37;0.00;0.00;0.62;0.00;0.00;0.62;;;;;11.70;1.00;;;;;;2280660;61;1401;-86
2020/12/25 04:50:05;38303.00;0.13;66.95;0.00;0.00;0.62;;;;;11.70;1.00;;;;;;2280719;61;1214;-87
2020/12/25 04:52:34;0.00;0.00;0.62;0.00;0.00;0.62;;;;;11.70;1.00;;;;;;2280397;61;1927;-86
2020/12/25 04:55:01;0.00;0.00;0.62;0.00;0.00;0.62;;;;;11.90;1.00;;;;;;2280685;61;1183;-85
2020/12/25 04:57:28;0.00;0.00;0.62;0.00;0.00;0.62;;;;;11.30;1.00;;;;;;2279704;61;1714;-84
2020/12/25 04:59:55;0.00;0.00;0.62;0.00;0.00;0.62;;;;;11.30;1.00;;;;;;2280623;61;1095;-85
2020/12/25 05:02:22;0.00;0.00;0.62;0.00;0.00;0.62;;;;;11.30;1.00;;;;;;2280686;61;1135;-86
2020/12/25 05:04:48;0.00;0.00;0.62;0.00;0.00;0.62;;;;;10.10;1.00;;;;;;2280649;61;1109;-87
2020/12/25 05:07:15;30640.00;0.10;53.69;0.00;0.00;0.62;;;;;9.70;1.00;;;;;;2280624;61;1505;-87
2020/12/25 05:09:41;0.00;0.00;0.62;0.00;0.00;0.62;;;;;9.50;1.00;;;;;;2280645;61;1120;-87
2020/12/25 05:12:11;0.00;0.00;0.62;0.00;0.00;0.62;;;;;9.30;1.00;;;;;;2280612;61;2006;-87
2020/12/25 05:14:43;0.00;0.00;0.62;0.00;0.00;0.62;;;;;8.90;1.00;;;;;;2280554;61;1086;-86
2020/12/25 05:17:12;0.00;0.00;0.62;0.00;0.00;0.62;;;;;9.10;1.00;;;;;;2280574;61;1418;-88
2020/12/25 05:19:41;0.00;0.00;0.62;0.00;0.00;0.62;;;;;9.00;1.00;;;;;;2281201;61;1184;-86
2020/12/25 05:22:08;34524.00;0.12;60.41;0.00;0.00;0.62;;;;;8.70;1.00;;;;;;2281243;61;1013;-86
2020/12/25 05:24:40;0.00;0.00;0.62;0.00;0.00;0.62;;;;;8.70;1.00;;;;;;2281367;61;1063;-87
2020/12/25 05:27:12;0.00;0.00;0.62;0.00;0.00;0.62;;;;;8.60;1.00;;;;;;2281330;61;1329;-88
2020/12/25 05:29:40;0.00;0.00;0.62;0.00;0.00;0.62;;;;;8.70;1.00;;;;;;2281157;61;977;-87
2020/12/25 05:32:07;0.00;0.00;0.62;0.00;0.00;0.62;;;;;8.60;1.00;;;;;;2281191;61;1921;-86
2020/12/25 05:34:35;0.00;0.00;0.62;0.00;0.00;0.62;;;;;8.30;1.00;;;;;;2280748;61;1094;-86
2020/12/25 05:37:04;0.00;0.00;0.62;0.00;0.00;0.62;;;;;8.30;1.00;;;;;;2281141;61;1304;-87
2020/12/25 05:39:32;9946.00;0.03;17.86;0.00;0.00;0.62;;;;;8.30;1.00;;;;;;2281153;61;1108;-85
2020/12/25 05:42:00;0.00;0.00;0.62;0.00;0.00;0.62;;;;;8.70;1.00;;;;;;2281035;61;1141;-86
2020/12/25 05:44:30;0.00;0.00;0.62;0.00;0.00;0.62;;;;;9.10;1.00;;;;;;2280793;61;1077;-87
2020/12/25 05:46:59;0.00;0.00;0.62;0.00;0.00;0.62;;;;;9.30;1.00;;;;;;2270772;61;1433;-87
2020/12/25 05:49:27;0.00;0.00;0.62;0.00;0.00;0.62;;;;;9.00;1.00;;;;;;2281239;61;1176;-86
2020/12/25 05:51:54;20299.00;0.07;35.79;0.00;0.00;0.62;;;;;9.00;1.00;;;;;;2281124;61;1996;-88
2020/12/25 05:54:22;0.00;0.00;0.62;0.00;0.00;0.62;;;;;8.90;1.00;;;;;;2281232;61;1141;-87
2020/12/25 05:56:52;0.00;0.00;0.62;0.00;0.00;0.62;;;;;8.90;1.00;;;;;;2281088;61;1312;-86
2020/12/25 05:59:24;0.00;0.00;0.62;0.00;0.00;0.62;;;;;8.60;1.00;;;;;;2279972;61;1308;-86
2020/12/25 06:01:54;0.00;0.00;0.62;0.00;0.00;0.62;;;;;8.50;1.00;;;;;;2280443;61;1130;-87
2020/12/25 06:04:22;0.00;0.00;0.62;0.00;0.00;0.62;;;;;8.70;1.00;;;;;;2281004;61;1044;-87
2020/12/25 06:06:50;0.00;0.00;0.62;0.00;0.00;0.62;;;;;8.90;1.00;;;;;;2270528;61;1325;-86
2020/12/25 06:09:18;56353.00;0.19;98.17;0.00;0.00;0.62;;;;;9.40;1.00;;;;;;2280924;61;1051;-87
2020/12/25 06:11:50;31127.00;0.10;54.53;0.00;0.00;0.62;;;;;9.40;1.00;;;;;;2280891;61;1921;-86
2020/12/25 06:14:17;0.00;0.00;0.62;0.00;0.00;0.62;;;;;9.20;1.00;;;;;;2273909;61;1143;-86
2020/12/25 06:16:55;0.00;0.00;0.62;0.00;0.00;0.62;;;;;9.40;1.00;;;;;;2280164;61;1467;-85
2020/12/25 06:19:33;0.00;0.00;0.62;0.00;0.00;0.62;;;;;9.80;1.00;;;;;;2280777;61;1176;-87
2020/12/25 06:22:05;0.00;0.00;0.62;0.00;0.00;0.62;;;;;9.60;1.00;;;;;;2270402;61;1176;-87
2020/12/25 06:24:34;0.00;0.00;0.62;0.00;0.00;0.62;;;;;9.50;1.00;;;;;;2280139;61;1183;-87
2020/12/25 06:27:02;0.00;0.00;0.62;0.00;0.00;0.62;;;;;9.80;1.00;;;;;;2280880;61;1398;-84
2020/12/25 06:29:29;0.00;0.00;0.62;0.00;0.00;0.62;;;;;10.40;1.00;;;;;;2280543;61;1235;-85
2020/12/25 06:31:57;0.00;0.00;0.62;0.00;0.00;0.62;;;;;10.90;1.00;;;;;;2280618;61;2020;-85
2020/12/25 06:34:39;0.00;0.00;0.62;0.00;0.00;0.62;;;;;11.20;1.00;;;;;;2273760;61;1050;-84
2020/12/25 06:37:09;0.00;0.00;0.62;0.00;0.00;0.62;;;;;11.30;1.00;;;;;;2280825;61;1395;-85
2020/12/25 06:39:35;0.00;0.00;0.62;0.00;0.00;0.62;;;;;11.30;1.00;;;;;;2280870;61;998;-86
2020/12/25 06:42:03;0.00;0.00;0.62;0.00;0.00;0.62;;;;;11.30;1.00;;;;;;2280839;61;1048;-86
2020/12/25 06:44:29;106237.00;0.35;184.34;0.00;0.00;0.62;;;;;11.60;1.00;;;;;;2280835;61;1049;-85
2020/12/25 06:47:02;0.00;0.00;0.62;0.00;0.00;0.62;;;;;11.20;1.00;;;;;;2272215;61;1359;-85
2020/12/25 06:49:35;0.00;0.00;0.62;0.00;0.00;0.62;;;;;10.50;1.00;;;;;;2272167;61;1036;-86
2020/12/25 06:52:03;0.00;0.00;0.62;0.00;0.00;0.62;;;;;10.00;1.00;;;;;;2272171;61;2012;-87
2020/12/25 06:54:39;0.00;0.00;0.62;0.00;0.00;0.62;;;;;9.30;1.00;;;;;;2272196;61;1079;-88
2020/12/25 06:57:09;0.00;0.00;0.62;0.00;0.00;0.62;;;;;9.10;1.00;;;;;;2261272;61;673332;-87
2020/12/25 06:59:36;0.00;0.00;0.62;0.00;0.00;0.62;;;;;8.70;1.00;;;;;;2264386;61;940;-87
2020/12/25 07:02:05;0.00;0.00;0.62;0.00;0.00;0.62;;;;;8.50;1.00;;;;;;2264422;61;1321;-86
2020/12/25 07:04:33;0.00;0.00;0.62;0.00;0.00;0.62;;;;;8.50;1.00;;;;;;2262875;61;1016;-86
2020/12/25 07:07:01;30809.00;0.10;53.98;0.00;0.00;0.62;;;;;8.70;1.00;;;;;;2267713;61;1507;-87
2020/12/25 07:09:38;222.00;0.00;1.00;0.00;0.00;0.62;;;;;8.80;1.00;;;;;;2268439;61;1138;-87
2020/12/25 07:12:08;0.00;0.00;0.62;0.00;0.00;0.62;;;;;8.50;1.00;;;;;;2268350;61;2006;-87
2020/12/25 07:14:34;0.00;0.00;0.62;0.00;0.00;0.62;;;;;8.70;1.00;;;;;;2261747;61;1030;-87
2020/12/25 07:17:01;0.00;0.00;0.62;0.00;0.00;0.62;;;;;8.50;1.00;;;;;;2270332;61;1352;-87
2020/12/25 07:19:27;0.00;0.00;0.62;0.00;0.00;0.62;;;;;8.70;1.00;;;;;;2276471;61;1129;-87
2020/12/25 07:21:55;0.00;0.00;0.62;0.00;0.00;0.62;;;;;8.60;1.00;;;;;;2277426;61;1933;-87
2020/12/25 07:24:23;0.00;0.00;0.62;0.00;0.00;0.62;;;;;8.40;1.00;;;;;;2280958;61;965;-88
2020/12/25 07:26:52;0.00;0.00;0.62;0.00;0.00;0.62;;;;;8.70;1.00;;;;;;2280861;61;1325;-88
2020/12/25 07:29:21;20885.00;0.07;36.80;0.00;0.00;0.62;;;;;8.70;1.00;;;;;;2280815;61;1663;-88
2020/12/25 07:31:48;0.00;0.00;0.62;0.00;0.00;0.62;;;;;8.60;1.00;;;;;;2280870;61;2004;-87
2020/12/25 07:34:19;0.00;0.00;0.62;0.00;0.00;0.62;;;;;9.10;1.00;;;;;;2280915;61;1128;-87
2020/12/25 07:36:47;297.00;0.00;1.13;0.00;0.00;0.62;;;;;10.00;1.00;;;;;;2270488;61;1394;-86
2020/12/25 07:39:15;28566.00;0.10;50.10;0.00;0.00;0.62;;;;;10.70;1.00;;;;;;2280799;61;1647;-86
2020/12/25 07:41:41;0.00;0.00;0.62;0.00;0.00;0.62;;;;;11.30;1.00;;;;;;2280655;61;1034;-86
2020/12/25 07:44:08;0.00;0.00;0.62;0.00;0.00;0.62;;;;;11.50;1.00;;;;;;2280860;61;1070;-86
2020/12/25 07:46:37;0.00;0.00;0.62;0.00;0.00;0.62;;;;;11.70;1.00;;;;;;2280865;61;1079;-88
2020/12/25 07:49:04;12461.00;0.04;22.21;0.00;0.00;0.62;;;;;11.90;1.00;;;;;;2280757;61;1464;-87
2020/12/25 07:51:31;0.00;0.00;0.62;0.00;0.00;0.62;;;;;11.90;1.00;;;;;;2280776;61;2012;-85
2020/12/25 07:53:59;0.00;0.00;0.62;0.00;0.00;0.62;;;;;11.90;1.00;;;;;;2280827;61;1109;-86
2020/12/25 07:56:29;0.00;0.00;0.62;0.00;0.00;0.62;;;;;11.60;1.00;;;;;;2280718;61;1150;-87
2020/12/25 07:58:57;50267.00;0.17;87.65;0.00;0.00;0.62;;;;;11.40;1.00;;;;;;2280778;61;1453;-87
2020/12/25 08:01:25;53614.00;0.18;93.44;0.00;0.00;0.62;;;;;11.50;1.00;;;;;;2280766;61;1091;-86
2020/12/25 08:03:52;0.00;0.00;0.62;0.00;0.00;0.62;;;;;11.60;1.00;;;;;;2273711;61;1143;-86
2020/12/25 08:06:21;0.00;0.00;0.62;0.00;0.00;0.62;;;;;11.80;1.00;;;;;;2280767;61;1739;-86
2020/12/25 08:08:51;26834.00;0.09;47.10;0.00;0.00;0.62;;;;;11.70;1.00;;;;;;2280734;61;1329;-86
2020/12/25 08:11:18;0.00;0.00;0.62;0.00;0.00;0.62;;;;;12.00;1.00;;;;;;2280792;61;962;-86
2020/12/25 08:13:49;0.00;0.00;0.62;0.00;0.00;0.62;;;;;12.00;1.00;;;;;;2280730;61;1924;-85
2020/12/25 08:16:16;0.00;0.00;0.62;0.00;0.00;0.62;;;;;12.20;1.00;;;;;;2280792;61;1117;-84
2020/12/25 08:18:42;17472.00;0.06;30.89;0.00;0.00;0.62;;;;;12.20;1.00;;;;;;2280731;61;1443;-85
2020/12/25 08:21:09;0.00;0.00;0.62;0.00;0.00;0.62;;;;;12.00;1.00;;;;;;2276978;61;978;-85
2020/12/25 08:23:36;0.00;0.00;0.62;0.00;0.00;0.62;;;;;11.90;1.00;;;;;;2280292;61;1660;-86
2020/12/25 08:26:04;0.00;0.00;0.62;0.00;0.00;0.62;;;;;12.10;1.00;;;;;;2280726;61;1083;-86
2020/12/25 08:28:31;0.00;0.00;0.62;0.00;0.00;0.62;;;;;12.20;1.00;;;;;;2280701;61;1395;-85
2020/12/25 08:31:13;0.00;0.00;0.62;0.00;0.00;0.62;;;;;12.20;1.00;;;;;;2280688;61;1128;-85
2020/12/25 08:33:40;0.00;0.00;0.62;0.00;0.00;0.62;;;;;12.20;1.00;;;;;;2280688;61;1939;-86
2020/12/25 08:36:10;0.00;0.00;0.62;0.00;0.00;0.62;;;;;12.30;1.00;;;;;;2280714;61;1087;-86
2020/12/25 08:38:43;0.00;0.00;0.62;0.00;0.00;0.62;;;;;12.00;1.00;;;;;;2280669;61;1327;-86
2020/12/25 08:41:10;0.00;0.00;0.62;0.00;0.00;0.62;;;;;11.80;1.00;;;;;;2280717;61;1115;-86
2020/12/25 08:43:37;0.00;0.00;0.62;0.00;0.00;0.62;;;;;11.80;1.00;;;;;;2280696;61;1050;-86
2020/12/25 08:46:05;0.00;0.00;0.62;0.00;0.00;0.62;;;;;12.00;1.00;;;;;;2280679;61;1114;-86
2020/12/25 08:48:33;0.00;0.00;0.62;0.00;0.00;0.62;;;;;12.10;1.00;;;;;;2280678;61;1409;-88
2020/12/25 08:51:09;0.00;0.00;0.62;0.00;0.00;0.62;;;;;12.20;1.00;;;;;;2280681;61;1097;-85
2020/12/25 08:53:37;0.00;0.00;0.62;0.00;0.00;0.62;;;;;12.00;1.00;;;;;;2281224;61;1922;-87
2020/12/25 08:56:17;0.00;0.00;0.62;0.00;0.00;0.62;;;;;12.20;1.00;;;;;;2281312;61;1768;-86
2020/12/25 08:58:55;22478.00;0.07;39.56;0.00;0.00;0.62;;;;;12.10;1.00;;;;;;2281227;61;1374;-86
2020/12/25 09:01:23;58673.00;0.20;102.18;0.00;0.00;0.62;;;;;11.90;1.00;;;;;;2281367;61;1119;-86
2020/12/25 09:03:50;0.00;0.00;0.62;0.00;0.00;0.62;;;;;11.50;1.00;;;;;;2281317;61;1082;-84
2020/12/25 09:06:17;0.00;0.00;0.62;0.00;0.00;0.62;;;;;11.50;1.00;;;;;;2281373;61;1104;-87
2020/12/25 09:08:47;6556.00;0.02;11.98;0.00;0.00;0.62;;;;;11.70;1.00;;;;;;2281261;61;1442;-88
2020/12/25 09:11:15;0.00;0.00;0.62;0.00;0.00;0.62;;;;;11.50;1.00;;;;;;2277549;61;988;-87
2020/12/25 09:13:42;0.00;0.00;0.62;0.00;0.00;0.62;;;;;11.80;1.00;;;;;;2274247;61;2006;-87
2020/12/25 09:16:09;0.00;0.00;0.62;0.00;0.00;0.62;;;;;11.70;1.00;;;;;;2280816;61;1658;-87
2020/12/25 09:18:39;0.00;0.00;0.62;0.00;0.00;0.62;;;;;11.70;1.00;;;;;;2281304;61;1398;-87
2020/12/25 09:21:08;28986.00;0.10;50.83;0.00;0.00;0.62;;;;;11.60;1.00;;;;;;2270916;61;1069;-86
2020/12/25 09:23:34;0.00;0.00;0.62;0.00;0.00;0.62;;;;;11.50;1.00;;;;;;2272725;61;1103;-88
2020/12/25 09:26:01;0.00;0.00;0.62;0.00;0.00;0.62;;;;;11.50;1.00;;;;;;2272678;61;1113;-87
2020/12/25 09:28:27;0.00;0.00;0.62;0.00;0.00;0.62;;;;;10.80;1.00;;;;;;2272762;61;1455;-87
2020/12/25 09:30:55;0.00;0.00;0.62;0.00;0.00;0.62;;;;;10.80;1.00;;;;;;2272043;61;1051;-88
2020/12/25 09:33:22;0.00;0.00;0.62;0.00;0.00;0.62;;;;;10.90;1.00;;;;;;2272738;61;1910;-86
2020/12/25 09:35:50;171693.00;0.57;297.18;0.00;0.00;0.62;;;;;11.00;1.00;;;;;;2262787;61;1053;-87
2020/12/25 09:38:17;33145.00;0.11;58.03;0.00;0.00;0.62;;;;;10.90;1.00;;;;;;2272726;61;1481;-86
2020/12/25 09:40:44;0.00;0.00;0.62;0.00;0.00;0.62;;;;;11.10;1.00;;;;;;2267104;61;985;-86
2020/12/25 09:43:11;0.00;0.00;0.62;0.00;0.00;0.62;;;;;11.20;1.00;;;;;;2281183;61;1131;-85
2020/12/25 09:45:38;29834.00;0.10;52.30;0.00;0.00;0.62;;;;;10.80;1.00;;;;;;2270841;61;1141;-85
2020/12/25 09:48:04;0.00;0.00;0.62;0.00;0.00;0.62;;;;;10.90;1.00;;;;;;2281175;61;1309;-86
2020/12/25 09:50:30;444.00;0.00;1.39;0.00;0.00;0.62;;;;;11.10;1.00;;;;;;2281215;61;1075;-87
2020/12/25 09:52:58;0.00;0.00;0.62;0.00;0.00;0.62;;;;;10.80;1.00;;;;;;2272587;61;1990;-88
2020/12/25 09:55:26;0.00;0.00;0.62;0.00;0.00;0.62;;;;;11.10;1.00;;;;;;2272727;61;1157;-87
2020/12/25 09:57:52;53377.00;0.18;93.03;0.00;0.00;0.62;;;;;11.60;1.00;;;;;;2264452;61;1317;-86
2020/12/25 10:00:19;0.00;0.00;0.62;0.00;0.00;0.62;;;;;11.60;1.00;;;;;;2260446;61;977;-87
2020/12/25 10:02:46;0.00;0.00;0.62;0.00;0.00;0.62;;;;;11.80;1.00;;;;;;2252488;61;1202;-85
2020/12/25 10:05:13;0.00;0.00;0.62;0.00;0.00;0.62;;;;;11.80;1.00;;;;;;2242345;61;1253;-87
2020/12/25 10:07:40;0.00;0.00;0.62;0.00;0.00;0.62;;;;;11.40;1.00;;;;;;2252061;61;1415;-86
2020/12/25 10:10:08;0.00;0.00;0.62;0.00;0.00;0.62;;;;;11.40;1.00;;;;;;2252064;61;1114;-87
2020/12/25 10:12:35;22191.00;0.07;39.06;0.00;0.00;0.62;;;;;11.70;1.00;;;;;;2251972;61;2008;-85
2020/12/25 10:15:02;0.00;0.00;0.62;0.00;0.00;0.62;;;;;11.70;1.00;;;;;;2253192;61;1237;-87
2020/12/25 10:17:28;0.00;0.00;0.62;0.00;0.00;0.62;;;;;11.40;1.00;;;;;;2254787;61;1456;-86
2020/12/25 10:19:55;0.00;0.00;0.62;0.00;0.00;0.62;;;;;11.40;1.00;;;;;;2269485;61;1092;-87
2020/12/25 10:22:22;0.00;0.00;0.62;0.00;0.00;0.62;;;;;11.70;1.00;;;;;;2276580;61;1106;-87
2020/12/25 10:24:49;57443.00;0.19;100.06;0.00;0.00;0.62;;;;;11.80;1.00;;;;;;2279038;61;1095;-87
2020/12/25 10:27:17;64850.00;0.22;112.86;0.00;0.00;0.62;;;;;11.80;1.00;;;;;;2281110;61;1512;-85
2020/12/25 10:29:43;0.00;0.00;0.62;0.00;0.00;0.62;;;;;11.70;1.00;;;;;;2281098;61;1156;-87
2020/12/25 10:32:10;0.00;0.00;0.62;0.00;0.00;0.62;;;;;10.90;1.00;;;;;;2280809;61;2012;-87
2020/12/25 10:34:37;2358.00;0.01;4.71;0.00;0.00;0.62;;;;;10.70;1.00;;;;;;2280842;61;1051;-87
2020/12/25 10:37:03;0.00;0.00;0.62;0.00;0.00;0.62;;;;;11.10;1.00;;;;;;2281028;61;1411;-87
2020/12/25 10:39:30;0.00;0.00;0.62;0.00;0.00;0.62;;;;;11.30;1.00;;;;;;2281051;61;1078;-87
2020/12/25 10:41:56;0.00;0.00;0.62;0.00;0.00;0.62;;;;;11.10;1.00;;;;;;2281092;61;1129;-87